createdAt,value
2022-11-22T00:00:38.868Z,591.00
2022-11-22T00:01:38.921Z,1109.00
2022-11-22T00:02:38.857Z,998.30
2022-11-22T00:03:38.882Z,892.50
2022-11-22T00:04:38.832Z,736.70
2022-11-22T00:05:38.815Z,585.80
2022-11-22T00:06:38.814Z,716.70
2022-11-22T00:07:38.858Z,264.60
2022-11-22T00:08:38.817Z,247.80
2022-11-22T00:09:38.784Z,319.00
2022-11-22T00:10:38.776Z,550.70
2022-11-22T00:11:38.754Z,1046.50
2022-11-22T00:12:38.765Z,1092.10
2022-11-22T00:13:38.754Z,1045.70
2022-11-22T00:14:38.715Z,1121.50
2022-11-22T00:15:38.692Z,1125.00
2022-11-22T00:16:38.691Z,901.50
2022-11-22T00:17:38.676Z,508.00
2022-11-22T00:18:38.683Z,757.70
2022-11-22T00:19:38.652Z,823.40
2022-11-22T00:20:38.629Z,666.50
2022-11-22T00:21:38.609Z,597.10
2022-11-22T00:22:44.051Z,390.20
2022-11-22T00:23:39.637Z,664.40
2022-11-22T00:24:38.581Z,833.90
2022-11-22T00:25:38.610Z,1999.90
2022-11-22T00:26:38.567Z,1818.40
2022-11-22T00:27:38.588Z,1999.90
2022-11-22T00:28:38.581Z,1466.20
2022-11-22T00:29:38.537Z,673.70
2022-11-22T00:30:38.545Z,359.20
2022-11-22T00:31:38.518Z,274.20
2022-11-22T00:32:38.532Z,312.40
2022-11-22T00:33:38.542Z,236.10
2022-11-22T00:34:38.530Z,391.90
2022-11-22T00:35:38.484Z,535.10
2022-11-22T00:36:38.471Z,360.70
2022-11-22T00:37:38.465Z,248.10
2022-11-22T00:38:38.480Z,235.30
2022-11-22T00:39:38.440Z,257.00
2022-11-22T00:40:38.478Z,334.40
2022-11-22T00:41:38.422Z,232.20
2022-11-22T00:42:38.396Z,262.00
2022-11-22T00:43:38.408Z,462.50
2022-11-22T00:44:38.372Z,1707.90
2022-11-22T00:45:38.358Z,977.70
2022-11-22T00:46:38.377Z,753.90
2022-11-22T00:47:38.335Z,1289.20
2022-11-22T00:48:38.362Z,1006.90
2022-11-22T00:49:38.313Z,817.40
2022-11-22T00:50:38.309Z,614.40
2022-11-22T00:51:38.299Z,242.10
2022-11-22T00:52:38.262Z,321.60
2022-11-22T00:53:38.306Z,1196.60
2022-11-22T00:54:38.282Z,1999.90
2022-11-22T00:55:38.252Z,845.50
2022-11-22T00:56:38.235Z,1761.70
2022-11-22T00:57:38.239Z,783.50
2022-11-22T00:58:38.238Z,1248.00
2022-11-22T00:59:38.199Z,335.20
2022-11-22T01:00:38.266Z,234.40
2022-11-22T01:01:38.209Z,243.10
2022-11-22T01:02:38.174Z,219.30
2022-11-22T01:03:38.199Z,404.40
2022-11-22T01:04:38.156Z,469.90
2022-11-22T01:05:38.137Z,348.40
2022-11-22T01:06:38.119Z,353.20
2022-11-22T01:07:38.158Z,363.20
2022-11-22T01:08:38.144Z,329.30
2022-11-22T01:09:38.101Z,334.30
2022-11-22T01:10:38.092Z,193.50
2022-11-22T01:11:38.079Z,382.00
2022-11-22T01:12:38.050Z,253.50
2022-11-22T01:13:38.079Z,380.60
2022-11-22T01:14:38.041Z,692.00
2022-11-22T01:15:38.014Z,744.80
2022-11-22T01:16:38.011Z,542.50
2022-11-22T01:17:37.998Z,352.90
2022-11-22T01:18:38.010Z,184.30
2022-11-22T01:19:37.972Z,371.00
2022-11-22T01:20:37.971Z,490.80
2022-11-22T01:21:37.958Z,442.40
2022-11-22T01:22:37.952Z,385.50
2022-11-22T01:23:37.961Z,284.10
2022-11-22T01:24:37.907Z,279.50
2022-11-22T01:25:37.937Z,337.70
2022-11-22T01:26:37.905Z,164.00
2022-11-22T01:27:37.909Z,175.90
2022-11-22T01:28:37.926Z,542.30
2022-11-22T01:29:37.859Z,974.10
2022-11-22T01:30:37.844Z,853.20
2022-11-22T01:31:37.870Z,803.20
2022-11-22T01:32:37.842Z,728.40
2022-11-22T01:33:37.857Z,189.10
2022-11-22T01:34:37.778Z,200.30
2022-11-22T01:35:37.771Z,182.60
2022-11-22T01:36:37.762Z,215.20
2022-11-22T01:37:37.747Z,385.70
2022-11-22T01:38:37.791Z,357.90
2022-11-22T01:39:37.757Z,167.40
2022-11-22T01:40:37.738Z,473.50
2022-11-22T01:41:37.714Z,633.80
2022-11-22T01:42:37.713Z,403.00
2022-11-22T01:43:37.744Z,306.60
2022-11-22T01:44:37.690Z,301.70
2022-11-22T01:45:37.671Z,188.70
2022-11-22T01:46:37.660Z,350.00
2022-11-22T01:47:37.663Z,393.90
2022-11-22T01:48:37.670Z,381.90
2022-11-22T01:49:37.645Z,571.90
2022-11-22T01:50:37.615Z,233.80
2022-11-22T01:51:37.615Z,236.00
2022-11-22T01:52:37.591Z,371.50
2022-11-22T01:53:37.639Z,369.20
2022-11-22T01:54:37.580Z,359.90
2022-11-22T01:55:37.552Z,289.00
2022-11-22T01:56:37.535Z,378.70
2022-11-22T01:57:37.527Z,966.80
2022-11-22T01:58:37.541Z,554.50
2022-11-22T01:59:37.554Z,736.10
2022-11-22T02:00:37.487Z,293.30
2022-11-22T02:01:37.536Z,424.60
2022-11-22T02:02:37.468Z,241.10
2022-11-22T02:03:37.472Z,322.40
2022-11-22T02:04:37.489Z,228.10
2022-11-22T02:05:37.462Z,241.90
2022-11-22T02:06:37.433Z,267.10
2022-11-22T02:07:37.472Z,277.60
2022-11-22T02:08:37.413Z,198.80
2022-11-22T02:09:37.437Z,624.00
2022-11-22T02:10:37.378Z,679.50
2022-11-22T02:11:37.407Z,331.50
2022-11-22T02:12:37.372Z,340.80
2022-11-22T02:13:37.344Z,532.70
2022-11-22T02:14:37.370Z,337.00
2022-11-22T02:15:37.348Z,194.10
2022-11-22T02:16:37.332Z,189.80
2022-11-22T02:17:37.345Z,351.10
2022-11-22T02:18:37.307Z,614.80
2022-11-22T02:19:37.335Z,494.60
2022-11-22T02:20:37.289Z,301.20
2022-11-22T02:21:37.279Z,245.00
2022-11-22T02:22:37.269Z,175.20
2022-11-22T02:23:37.251Z,107.10
2022-11-22T02:24:37.271Z,232.30
2022-11-22T02:25:37.234Z,437.60
2022-11-22T02:26:37.215Z,369.60
2022-11-22T02:27:37.220Z,171.30
2022-11-22T02:28:37.196Z,154.30
2022-11-22T02:29:37.214Z,185.30
2022-11-22T02:30:37.169Z,412.30
2022-11-22T02:31:37.175Z,470.80
2022-11-22T02:32:37.153Z,328.30
2022-11-22T02:33:37.141Z,324.40
2022-11-22T02:34:37.146Z,333.50
2022-11-22T02:35:37.118Z,288.40
2022-11-22T02:36:37.104Z,289.50
2022-11-22T02:37:37.097Z,290.70
2022-11-22T02:38:37.078Z,353.20
2022-11-22T02:39:37.100Z,207.20
2022-11-22T02:40:37.054Z,221.20
2022-11-22T02:41:37.063Z,371.90
2022-11-22T02:42:37.029Z,266.20
2022-11-22T02:43:37.022Z,289.40
2022-11-22T02:44:37.037Z,345.90
2022-11-22T02:45:37.004Z,224.50
2022-11-22T02:46:36.987Z,157.20
2022-11-22T02:47:36.967Z,198.00
2022-11-22T02:48:36.946Z,186.70
2022-11-22T02:49:36.974Z,385.20
2022-11-22T02:50:36.935Z,450.80
2022-11-22T02:51:36.927Z,163.60
2022-11-22T02:52:36.909Z,158.90
2022-11-22T02:53:36.927Z,183.30
2022-11-22T02:54:36.946Z,370.70
2022-11-22T02:55:36.931Z,355.40
2022-11-22T02:56:36.880Z,304.00
2022-11-22T02:57:36.857Z,314.60
2022-11-22T02:58:36.846Z,169.90
2022-11-22T02:59:36.870Z,187.70
2022-11-22T03:00:36.935Z,241.30
2022-11-22T03:01:36.895Z,359.50
2022-11-22T03:02:36.833Z,359.50
2022-11-22T03:03:36.796Z,346.90
2022-11-22T03:04:36.812Z,344.90
2022-11-22T03:05:36.780Z,234.60
2022-11-22T03:06:36.777Z,205.80
2022-11-22T03:07:36.799Z,210.60
2022-11-22T03:08:36.737Z,306.50
2022-11-22T03:09:36.776Z,308.70
2022-11-22T03:10:36.704Z,248.50
2022-11-22T03:11:36.716Z,226.60
2022-11-22T03:12:36.696Z,363.40
2022-11-22T03:13:36.676Z,206.30
2022-11-22T03:14:36.697Z,223.50
2022-11-22T03:15:36.656Z,253.50
2022-11-22T03:16:36.642Z,236.90
2022-11-22T03:17:36.624Z,171.90
2022-11-22T03:18:36.633Z,214.30
2022-11-22T03:19:36.661Z,375.20
2022-11-22T03:20:36.614Z,341.00
2022-11-22T03:21:36.596Z,336.80
2022-11-22T03:22:36.574Z,296.50
2022-11-22T03:23:36.556Z,177.10
2022-11-22T03:24:36.538Z,243.60
2022-11-22T03:25:36.576Z,331.00
2022-11-22T03:26:36.525Z,336.80
2022-11-22T03:27:36.542Z,372.80
2022-11-22T03:28:36.513Z,347.80
2022-11-22T03:29:36.514Z,283.10
2022-11-22T03:30:36.504Z,197.50
2022-11-22T03:31:36.469Z,198.40
2022-11-22T03:32:36.477Z,211.70
2022-11-22T03:33:36.453Z,162.70
2022-11-22T03:34:36.471Z,159.00
2022-11-22T03:35:36.480Z,220.20
2022-11-22T03:36:36.411Z,149.50
2022-11-22T03:37:36.415Z,186.70
2022-11-22T03:38:36.399Z,169.00
2022-11-22T03:39:36.399Z,147.20
2022-11-22T03:40:36.447Z,298.00
2022-11-22T03:41:36.384Z,181.90
2022-11-22T03:42:36.354Z,181.70
2022-11-22T03:43:36.352Z,154.90
2022-11-22T03:44:36.326Z,291.10
2022-11-22T03:45:36.345Z,378.40
2022-11-22T03:46:36.304Z,315.90
2022-11-22T03:47:36.300Z,340.10
2022-11-22T03:48:36.298Z,322.90
2022-11-22T03:49:36.279Z,316.40
2022-11-22T03:50:36.294Z,254.50
2022-11-22T03:51:36.255Z,166.40
2022-11-22T03:52:36.251Z,293.80
2022-11-22T03:53:36.245Z,305.00
2022-11-22T03:54:36.234Z,262.10
2022-11-22T03:55:36.245Z,169.80
2022-11-22T03:56:36.183Z,135.90
2022-11-22T03:57:36.196Z,148.10
2022-11-22T03:58:36.176Z,265.00
2022-11-22T03:59:36.160Z,243.80
2022-11-22T04:00:36.172Z,172.10
2022-11-22T04:01:36.180Z,169.10
2022-11-22T04:02:36.118Z,170.60
2022-11-22T04:03:36.126Z,308.50
2022-11-22T04:04:36.110Z,328.30
2022-11-22T04:05:36.146Z,311.20
2022-11-22T04:06:36.096Z,311.50
2022-11-22T04:07:36.138Z,290.40
2022-11-22T04:08:36.125Z,253.20
2022-11-22T04:09:36.112Z,150.00
2022-11-22T04:10:36.069Z,153.20
2022-11-22T04:11:36.032Z,257.20
2022-11-22T04:12:36.013Z,222.40
2022-11-22T04:13:36.020Z,113.90
2022-11-22T04:14:35.979Z,155.90
2022-11-22T04:15:36.012Z,226.70
2022-11-22T04:16:35.958Z,139.00
2022-11-22T04:17:35.978Z,144.70
2022-11-22T04:18:35.960Z,228.00
2022-11-22T04:19:35.933Z,141.40
2022-11-22T04:20:35.955Z,235.00
2022-11-22T04:21:35.927Z,111.10
2022-11-22T04:22:35.918Z,121.10
2022-11-22T04:23:35.898Z,255.80
2022-11-22T04:24:35.892Z,228.80
2022-11-22T04:25:35.901Z,127.00
2022-11-22T04:26:35.915Z,149.70
2022-11-22T04:27:35.857Z,118.50
2022-11-22T04:29:07.584Z,299.40
2022-11-22T04:29:36.838Z,281.10
2022-11-22T04:30:35.859Z,274.10
2022-11-22T04:31:35.826Z,253.80
2022-11-22T04:32:35.800Z,250.10
2022-11-22T04:33:35.787Z,245.30
2022-11-22T04:34:35.781Z,243.30
2022-11-22T04:35:35.790Z,231.90
2022-11-22T04:36:35.744Z,116.70
2022-11-22T04:37:35.724Z,127.60
2022-11-22T04:38:35.711Z,163.90
2022-11-22T04:39:35.704Z,133.80
2022-11-22T04:40:35.739Z,266.50
2022-11-22T04:41:35.710Z,236.80
2022-11-22T04:42:35.694Z,196.10
2022-11-22T04:43:35.662Z,121.90
2022-11-22T04:44:35.681Z,164.40
2022-11-22T04:45:35.665Z,152.10
2022-11-22T04:46:35.637Z,134.80
2022-11-22T04:47:35.634Z,158.20
2022-11-22T04:48:35.615Z,217.50
2022-11-22T04:49:35.601Z,242.00
2022-11-22T04:50:35.644Z,133.60
2022-11-22T04:51:35.583Z,139.40
2022-11-22T04:52:35.587Z,226.60
2022-11-22T04:53:35.570Z,138.90
2022-11-22T04:54:35.554Z,205.80
2022-11-22T04:55:35.586Z,138.90
2022-11-22T04:56:35.529Z,144.40
2022-11-22T04:57:35.513Z,280.90
2022-11-22T04:58:35.527Z,242.10
2022-11-22T04:59:35.501Z,119.50
2022-11-22T05:00:35.534Z,141.60
2022-11-22T05:01:35.558Z,277.30
2022-11-22T05:02:35.474Z,269.70
2022-11-22T05:03:35.451Z,238.50
2022-11-22T05:04:35.438Z,249.00
2022-11-22T05:05:35.454Z,193.50
2022-11-22T05:06:35.419Z,122.80
2022-11-22T05:07:35.451Z,125.90
2022-11-22T05:08:35.419Z,159.40
2022-11-22T05:09:35.400Z,153.90
2022-11-22T05:10:35.418Z,141.40
2022-11-22T05:11:35.374Z,128.20
2022-11-22T05:12:35.348Z,166.50
2022-11-22T05:13:35.329Z,143.70
2022-11-22T05:14:35.320Z,278.60
2022-11-22T05:15:35.317Z,129.00
2022-11-22T05:16:35.336Z,130.30
2022-11-22T05:17:35.302Z,138.90
2022-11-22T05:18:35.304Z,157.80
2022-11-22T05:19:35.296Z,131.00
2022-11-22T05:20:35.281Z,129.70
2022-11-22T05:21:35.293Z,284.00
2022-11-22T05:22:35.233Z,228.00
2022-11-22T05:23:35.224Z,142.80
2022-11-22T05:24:35.222Z,130.30
2022-11-22T05:25:35.190Z,138.60
2022-11-22T05:26:35.250Z,278.70
2022-11-22T05:27:35.172Z,287.40
2022-11-22T05:28:35.185Z,127.40
2022-11-22T05:29:35.172Z,218.80
2022-11-22T05:30:35.159Z,273.40
2022-11-22T05:31:35.174Z,155.30
2022-11-22T05:32:35.132Z,138.00
2022-11-22T05:33:35.115Z,241.00
2022-11-22T05:34:35.113Z,286.50
2022-11-22T05:35:35.101Z,130.00
2022-11-22T05:36:35.125Z,145.50
2022-11-22T05:37:35.070Z,153.80
2022-11-22T05:38:35.110Z,372.70
2022-11-22T05:39:35.075Z,147.90
2022-11-22T05:40:35.032Z,124.00
2022-11-22T05:41:35.064Z,149.60
2022-11-22T05:42:35.017Z,164.10
2022-11-22T05:43:35.017Z,234.20
2022-11-22T05:44:34.993Z,130.30
2022-11-22T05:45:34.995Z,129.40
2022-11-22T05:46:35.061Z,382.70
2022-11-22T05:47:34.983Z,202.70
2022-11-22T05:48:34.941Z,119.30
2022-11-22T05:49:34.926Z,148.30
2022-11-22T05:50:34.922Z,136.80
2022-11-22T05:51:35.352Z,143.80
2022-11-22T05:52:34.914Z,122.10
2022-11-22T05:53:34.888Z,169.60
2022-11-22T05:54:34.926Z,198.60
2022-11-22T05:55:34.877Z,106.60
2022-11-22T05:56:34.896Z,126.70
2022-11-22T05:57:34.857Z,180.00
2022-11-22T05:58:34.831Z,205.70
2022-11-22T05:59:36.812Z,333.90
2022-11-22T06:00:35.851Z,113.00
2022-11-22T06:01:34.838Z,123.30
2022-11-22T06:02:34.879Z,106.30
2022-11-22T06:03:34.802Z,122.80
2022-11-22T06:04:34.777Z,150.00
2022-11-22T06:05:34.785Z,131.00
2022-11-22T06:06:34.768Z,309.20
2022-11-22T06:07:34.829Z,97.40
2022-11-22T06:08:34.736Z,137.50
2022-11-22T06:09:34.709Z,146.90
2022-11-22T06:10:34.715Z,142.00
2022-11-22T06:11:34.693Z,117.60
2022-11-22T06:12:34.717Z,138.50
2022-11-22T06:13:34.679Z,158.50
2022-11-22T06:14:38.518Z,135.60
2022-11-22T06:15:35.657Z,179.50
2022-11-22T06:16:34.654Z,108.60
2022-11-22T06:17:34.668Z,193.00
2022-11-22T06:18:34.618Z,165.70
2022-11-22T06:19:34.604Z,465.50
2022-11-22T06:20:34.600Z,365.30
2022-11-22T06:21:34.593Z,325.70
2022-11-22T06:22:34.626Z,140.10
2022-11-22T06:23:34.578Z,127.60
2022-11-22T06:24:34.540Z,145.50
2022-11-22T06:25:34.521Z,138.50
2022-11-22T06:26:39.076Z,149.10
2022-11-22T06:27:35.537Z,137.50
2022-11-22T06:28:34.518Z,163.10
2022-11-22T06:29:34.492Z,157.30
2022-11-22T06:30:34.503Z,157.10
2022-11-22T06:31:34.480Z,182.30
2022-11-22T06:32:34.506Z,114.10
2022-11-22T06:33:34.447Z,411.70
2022-11-22T06:34:34.442Z,153.90
2022-11-22T06:35:34.425Z,149.80
2022-11-22T06:36:34.416Z,145.60
2022-11-22T06:37:34.449Z,192.70
2022-11-22T06:38:34.423Z,140.00
2022-11-22T06:39:34.369Z,140.00
2022-11-22T06:40:34.373Z,131.30
2022-11-22T06:41:34.370Z,149.00
2022-11-22T06:42:34.402Z,126.60
2022-11-22T06:43:34.347Z,162.40
2022-11-22T06:44:34.342Z,136.40
2022-11-22T06:45:34.346Z,135.80
2022-11-22T06:46:34.317Z,143.00
2022-11-22T06:47:34.327Z,126.10
2022-11-22T06:48:34.321Z,140.50
2022-11-22T06:49:34.273Z,128.60
2022-11-22T06:50:34.283Z,127.90
2022-11-22T06:51:34.262Z,130.10
2022-11-22T06:52:34.279Z,171.50
2022-11-22T06:53:46.943Z,132.20
2022-11-22T06:54:35.220Z,142.00
2022-11-22T06:55:50.011Z,144.30
2022-11-22T06:56:35.201Z,155.60
2022-11-22T06:57:34.225Z,163.00
2022-11-22T06:58:34.176Z,131.10
2022-11-22T06:59:34.174Z,141.50
2022-11-22T07:00:34.143Z,168.10
2022-11-22T07:01:34.296Z,140.80
2022-11-22T07:02:34.157Z,181.70
2022-11-22T07:03:34.115Z,128.80
2022-11-22T07:04:34.132Z,161.70
2022-11-22T07:05:34.094Z,110.10
2022-11-22T07:06:34.105Z,172.30
2022-11-22T07:07:34.169Z,143.40
2022-11-22T07:08:34.081Z,131.90
2022-11-22T07:09:34.055Z,133.70
2022-11-22T07:10:34.065Z,161.20
2022-11-22T07:11:34.028Z,115.20
2022-11-22T07:12:34.067Z,154.00
2022-11-22T07:13:34.017Z,129.40
2022-11-22T07:14:34.012Z,144.50
2022-11-22T07:15:33.985Z,124.40
2022-11-22T07:16:34.029Z,134.20
2022-11-22T07:17:33.997Z,153.70
2022-11-22T07:18:33.952Z,112.70
2022-11-22T07:19:33.964Z,148.50
2022-11-22T07:20:33.935Z,113.90
2022-11-22T07:21:33.938Z,162.50
2022-11-22T07:22:33.958Z,112.80
2022-11-22T07:23:33.920Z,147.50
2022-11-22T07:24:33.914Z,130.90
2022-11-22T07:25:33.894Z,143.80
2022-11-22T07:26:33.884Z,110.50
2022-11-22T07:27:33.894Z,109.50
2022-11-22T07:28:33.850Z,109.30
2022-11-22T07:29:33.835Z,116.80
2022-11-22T07:30:33.858Z,108.80
2022-11-22T07:31:33.824Z,130.50
2022-11-22T07:32:33.833Z,141.40
2022-11-22T07:33:33.792Z,108.80
2022-11-22T07:34:33.804Z,153.20
2022-11-22T07:35:33.784Z,137.40
2022-11-22T07:36:33.750Z,105.50
2022-11-22T07:37:33.769Z,172.40
2022-11-22T07:38:33.729Z,133.00
2022-11-22T07:39:33.721Z,136.70
2022-11-22T07:40:33.726Z,148.60
2022-11-22T07:41:33.734Z,117.70
2022-11-22T07:42:33.758Z,137.90
2022-11-22T07:43:33.693Z,144.70
2022-11-22T07:44:33.667Z,143.00
2022-11-22T07:45:33.659Z,102.70
2022-11-22T07:46:33.679Z,151.60
2022-11-22T07:47:33.664Z,110.90
2022-11-22T07:48:33.645Z,98.70
2022-11-22T07:49:33.635Z,162.10
2022-11-22T07:50:33.632Z,96.60
2022-11-22T07:51:33.611Z,123.90
2022-11-22T07:52:33.627Z,117.10
2022-11-22T07:53:33.603Z,164.80
2022-11-22T07:54:33.573Z,91.40
2022-11-22T07:55:33.566Z,143.30
2022-11-22T07:56:33.544Z,147.50
2022-11-22T07:57:33.577Z,149.40
2022-11-22T07:58:33.554Z,115.00
2022-11-22T07:59:33.532Z,142.70
2022-11-22T08:00:33.487Z,172.40
2022-11-22T08:01:33.514Z,131.90
2022-11-22T08:02:33.529Z,163.80
2022-11-22T08:03:33.455Z,157.30
2022-11-22T08:04:33.484Z,154.40
2022-11-22T08:05:33.429Z,177.30
2022-11-22T08:06:33.427Z,180.80
2022-11-22T08:07:33.542Z,418.00
2022-11-22T08:08:33.415Z,265.60
2022-11-22T08:09:33.403Z,196.50
2022-11-22T08:10:33.393Z,215.00
2022-11-22T08:11:33.364Z,287.20
2022-11-22T08:12:33.397Z,265.50
2022-11-22T08:13:33.346Z,311.10
2022-11-22T08:14:33.320Z,290.80
2022-11-22T08:15:33.341Z,305.90
2022-11-22T08:16:33.348Z,332.60
2022-11-22T08:17:33.335Z,499.20
2022-11-22T08:18:33.290Z,320.50
2022-11-22T08:19:33.294Z,780.00
2022-11-22T08:20:33.277Z,559.10
2022-11-22T08:21:33.306Z,858.00
2022-11-22T08:22:33.268Z,591.10
2022-11-22T08:23:33.239Z,1999.90
2022-11-22T08:24:33.240Z,1999.90
2022-11-22T08:25:33.230Z,608.50
2022-11-22T08:26:33.243Z,384.30
2022-11-22T08:27:33.241Z,472.00
2022-11-22T08:28:33.176Z,1999.90
2022-11-22T08:29:33.170Z,1999.90
2022-11-22T08:30:33.169Z,134.20
2022-11-22T08:31:33.173Z,706.10
2022-11-22T08:32:33.185Z,1999.90
2022-11-22T08:33:33.150Z,192.70
2022-11-22T08:34:34.023Z,1999.90
2022-11-22T08:35:33.134Z,1999.90
2022-11-22T08:36:33.098Z,1999.90
2022-11-22T08:37:33.120Z,1999.90
2022-11-22T08:38:33.090Z,1999.90
2022-11-22T08:39:33.045Z,1999.90
2022-11-22T08:40:38.015Z,1999.90
2022-11-22T08:41:34.034Z,1999.90
2022-11-22T08:42:33.059Z,1999.90
2022-11-22T08:43:33.013Z,1999.90
2022-11-22T08:44:33.003Z,1999.90
2022-11-22T08:45:33.047Z,1999.90
2022-11-22T08:46:32.989Z,186.00
2022-11-22T08:47:32.986Z,1999.90
2022-11-22T08:48:32.982Z,1999.90
2022-11-22T08:49:33.290Z,1999.90
2022-11-22T08:50:32.926Z,1999.90
2022-11-22T08:51:32.948Z,1999.90
2022-11-22T08:52:32.976Z,1999.90
2022-11-22T08:53:32.914Z,1999.90
2022-11-22T08:54:37.555Z,1999.90
2022-11-22T08:55:33.885Z,1999.90
2022-11-22T08:56:32.879Z,227.70
2022-11-22T08:57:32.903Z,1999.90
2022-11-22T08:58:32.866Z,1999.90
2022-11-22T08:59:33.511Z,1999.90
2022-11-22T09:00:33.660Z,288.50
2022-11-22T09:01:32.868Z,1999.90
2022-11-22T09:02:32.844Z,1999.90
2022-11-22T09:03:32.800Z,1999.90
2022-11-22T09:04:32.770Z,1999.90
2022-11-22T09:05:32.931Z,1999.90
2022-11-22T09:08:36.495Z,1999.90
2022-11-22T09:09:39.985Z,1999.90
2022-11-22T09:10:33.748Z,1999.90
2022-11-22T09:11:32.713Z,1999.90
2022-11-22T09:12:32.722Z,183.40
2022-11-22T09:13:32.673Z,1999.90
2022-11-22T09:14:32.684Z,1999.90
2022-11-22T09:15:32.673Z,1999.90
2022-11-22T09:16:32.631Z,1999.90
2022-11-22T09:17:32.641Z,1999.90
2022-11-22T09:18:32.653Z,1999.90
2022-11-22T09:19:32.851Z,1999.90
2022-11-22T09:20:32.597Z,1999.90
2022-11-22T09:21:32.578Z,1999.90
2022-11-22T09:22:32.573Z,1999.90
2022-11-22T09:23:32.592Z,540.50
2022-11-22T09:24:32.544Z,1999.90
2022-11-22T09:25:32.530Z,1999.90
2022-11-22T09:26:32.512Z,1999.90
2022-11-22T09:27:32.513Z,1999.90
2022-11-22T09:28:32.545Z,1999.90
2022-11-22T09:29:32.875Z,1301.00
2022-11-22T09:30:32.491Z,1999.90
2022-11-22T09:31:32.473Z,1999.90
2022-11-22T09:32:33.958Z,1999.90
2022-11-22T09:33:32.517Z,1999.90
2022-11-22T09:34:32.447Z,260.60
2022-11-22T09:35:32.438Z,1999.90
2022-11-22T09:36:32.423Z,1999.90
2022-11-22T09:37:32.420Z,1999.90
2022-11-22T09:38:32.434Z,1999.90
2022-11-22T09:39:32.561Z,1999.90
2022-11-22T09:40:32.364Z,1999.90
2022-11-22T09:41:32.364Z,1999.90
2022-11-22T09:42:32.348Z,1999.90
2022-11-22T09:43:32.388Z,1999.90
2022-11-22T09:44:32.346Z,1999.90
2022-11-22T09:45:32.316Z,1999.90
2022-11-22T09:46:32.296Z,1999.90
2022-11-22T09:47:32.291Z,1999.90
2022-11-22T09:48:32.313Z,1999.90
2022-11-22T09:49:32.765Z,1999.90
2022-11-22T09:50:32.249Z,1999.90
2022-11-22T09:51:32.251Z,1999.90
2022-11-22T09:52:32.228Z,1999.90
2022-11-22T09:53:32.259Z,1999.90
2022-11-22T09:54:32.211Z,1999.90
2022-11-22T09:55:32.201Z,1999.90
2022-11-22T09:56:32.197Z,1999.90
2022-11-22T09:57:32.187Z,1999.90
2022-11-22T09:58:32.198Z,1999.90
2022-11-22T09:59:32.400Z,1999.90
2022-11-22T10:00:32.127Z,1999.90
2022-11-22T10:01:32.202Z,1999.90
2022-11-22T10:02:43.616Z,1999.90
2022-11-22T10:03:33.131Z,1999.90
2022-11-22T10:04:32.093Z,1999.90
2022-11-22T10:05:32.088Z,1999.90
2022-11-22T10:06:32.078Z,1999.90
2022-11-22T10:07:32.125Z,1999.90
2022-11-22T10:08:32.059Z,1999.90
2022-11-22T10:09:32.389Z,1999.90
2022-11-22T10:10:32.044Z,1999.90
2022-11-22T10:11:36.232Z,1999.90
2022-11-22T10:12:32.009Z,1999.90
2022-11-22T10:13:31.987Z,1999.90
2022-11-22T10:14:32.005Z,1999.90
2022-11-22T10:15:31.994Z,1999.90
2022-11-22T10:16:31.942Z,1999.90
2022-11-22T10:17:31.962Z,1999.90
2022-11-22T10:18:31.957Z,1999.90
2022-11-22T10:19:32.219Z,1999.90
2022-11-22T10:20:31.925Z,1999.90
2022-11-22T10:21:31.909Z,1999.90
2022-11-22T10:22:31.901Z,1999.90
2022-11-22T10:23:31.896Z,1999.90
2022-11-22T10:24:31.902Z,1999.90
2022-11-22T10:25:31.850Z,1999.90
2022-11-22T10:26:31.867Z,1999.90
2022-11-22T10:27:31.845Z,1999.90
2022-11-22T10:28:31.842Z,1999.90
2022-11-22T10:29:32.152Z,1999.90
2022-11-22T10:30:31.793Z,1999.90
2022-11-22T10:31:31.812Z,1999.90
2022-11-22T10:32:31.782Z,1999.90
2022-11-22T10:33:31.752Z,1999.90
2022-11-22T10:34:31.826Z,1999.90
2022-11-22T10:35:31.739Z,1999.90
2022-11-22T10:36:31.719Z,1999.90
2022-11-22T10:37:31.720Z,1999.90
2022-11-22T10:38:31.701Z,1999.90
2022-11-22T10:39:34.670Z,1999.90
2022-11-22T10:40:31.698Z,1999.90
2022-11-22T10:41:31.690Z,1999.90
2022-11-22T10:42:31.683Z,1999.90
2022-11-22T10:43:31.673Z,1999.90
2022-11-22T10:44:31.689Z,1999.90
2022-11-22T10:45:31.634Z,1999.90
2022-11-22T10:46:31.616Z,1999.90
2022-11-22T10:47:34.320Z,1999.90
2022-11-22T10:48:31.594Z,1999.90
2022-11-22T10:49:31.843Z,1999.90
2022-11-22T10:50:31.582Z,1999.90
2022-11-22T10:51:31.580Z,1999.90
2022-11-22T10:52:31.558Z,1999.90
2022-11-22T10:53:31.544Z,1999.90
2022-11-22T10:54:31.554Z,1999.90
2022-11-22T10:55:31.520Z,1999.90
2022-11-22T10:56:31.507Z,1999.90
2022-11-22T10:57:31.503Z,1999.90
2022-11-22T10:58:31.501Z,1999.90
2022-11-22T10:59:31.904Z,1999.90
2022-11-22T11:00:31.476Z,1999.90
2022-11-22T11:01:31.513Z,1999.90
2022-11-22T11:02:31.439Z,1999.90
2022-11-22T11:03:31.452Z,1999.90
2022-11-22T11:04:31.500Z,1999.90
2022-11-22T11:05:31.423Z,1999.90
2022-11-22T11:06:49.949Z,1999.90
2022-11-22T11:07:32.466Z,412.70
2022-11-22T11:08:54.254Z,1999.90
2022-11-22T11:10:34.621Z,952.10
2022-11-22T11:11:31.347Z,873.10
2022-11-22T11:12:31.319Z,903.60
2022-11-22T11:13:31.315Z,245.30
2022-11-22T11:14:31.516Z,1125.20
2022-11-22T11:15:31.338Z,177.40
2022-11-22T11:16:31.326Z,1999.90
2022-11-22T11:17:31.280Z,838.50
2022-11-22T11:18:31.261Z,1999.90
2022-11-22T11:19:31.261Z,1999.90
2022-11-22T11:20:31.282Z,1000.90
2022-11-22T11:21:31.240Z,1999.90
2022-11-22T11:22:58.563Z,1999.90
2022-11-22T11:23:32.222Z,1999.90
2022-11-22T11:24:31.529Z,1999.90
2022-11-22T11:25:31.210Z,1999.90
2022-11-22T11:26:31.174Z,971.60
2022-11-22T11:27:31.165Z,1571.00
2022-11-22T11:28:31.152Z,51.60
2022-11-22T11:29:37.243Z,1182.80
2022-11-22T11:30:32.154Z,1128.90
2022-11-22T11:31:31.121Z,1999.90
2022-11-22T11:32:31.115Z,687.30
2022-11-22T11:33:31.095Z,581.70
2022-11-22T11:34:31.343Z,328.00
2022-11-22T11:35:31.098Z,152.90
2022-11-22T11:36:31.218Z,1999.90
2022-11-22T11:37:31.089Z,1999.90
2022-11-22T11:38:31.043Z,1999.90
2022-11-22T11:39:31.451Z,835.40
2022-11-22T11:40:31.053Z,950.90
2022-11-22T11:41:31.027Z,852.70
2022-11-22T11:42:31.006Z,1999.90
2022-11-22T11:43:30.998Z,83.10
2022-11-22T11:44:31.176Z,909.60
2022-11-22T11:45:31.007Z,446.50
2022-11-22T11:46:30.982Z,948.50
2022-11-22T11:47:30.921Z,884.40
2022-11-22T11:48:30.904Z,1091.30
2022-11-22T11:49:31.166Z,90.40
2022-11-22T11:50:30.912Z,54.70
2022-11-22T11:51:30.897Z,52.20
2022-11-22T11:52:30.875Z,50.00
2022-11-22T11:53:30.861Z,76.70
2022-11-22T11:54:30.873Z,65.90
2022-11-22T11:55:30.908Z,88.30
2022-11-22T11:56:30.847Z,57.90
2022-11-22T11:57:30.815Z,54.10
2022-11-22T11:58:30.822Z,50.60
2022-11-22T11:59:31.059Z,39.30
2022-11-22T12:00:30.818Z,32.40
2022-11-22T12:01:34.472Z,41.40
2022-11-22T12:02:33.555Z,70.20
2022-11-22T12:03:30.768Z,60.20
2022-11-22T12:04:30.980Z,51.50
2022-11-22T12:05:30.791Z,50.30
2022-11-22T12:06:30.722Z,54.10
2022-11-22T12:07:30.819Z,48.90
2022-11-22T12:08:30.712Z,45.50
2022-11-22T12:09:30.690Z,54.70
2022-11-22T12:10:30.709Z,55.90
2022-11-22T12:11:30.672Z,52.50
2022-11-22T12:12:30.662Z,62.80
2022-11-22T12:13:30.667Z,147.70
2022-11-22T12:14:55.509Z,35.90
2022-11-22T12:15:31.690Z,84.30
2022-11-22T12:16:30.618Z,83.70
2022-11-22T12:17:30.603Z,87.90
2022-11-22T12:18:30.581Z,60.60
2022-11-22T12:19:30.592Z,103.40
2022-11-22T12:20:30.581Z,240.50
2022-11-22T12:21:30.595Z,91.00
2022-11-22T12:22:48.755Z,100.20
2022-11-22T12:23:31.530Z,274.00
2022-11-22T12:25:33.163Z,497.30
2022-11-22T12:26:30.521Z,456.50
2022-11-22T12:27:30.516Z,68.00